sensor_id;sensor_type;location;lat;lon;timestamp;pressure;altitude;pressure_sealevel;temperature;humidity
40570;BME280;26270;34.428;-119.710;2023-02-13T00:00:34;100636.76;;;18.49;40.90
40570;BME280;26270;34.428;-119.710;2023-02-13T00:03:03;100641.55;;;18.42;41.01
40570;BME280;26270;34.428;-119.710;2023-02-13T00:05:31;100635.96;;;18.52;40.88
40570;BME280;26270;34.428;-119.710;2023-02-13T00:08:00;100643.83;;;18.51;40.69
40570;BME280;26270;34.428;-119.710;2023-02-13T00:10:28;100642.60;;;18.36;41.90
40570;BME280;26270;34.428;-119.710;2023-02-13T00:12:56;100641.79;;;18.42;41.03
40570;BME280;26270;34.428;-119.710;2023-02-13T00:15:24;100639.66;;;18.24;40.96
40570;BME280;26270;34.428;-119.710;2023-02-13T00:17:53;100636.15;;;18.26;41.55
40570;BME280;26270;34.428;-119.710;2023-02-13T00:20:21;100626.41;;;18.27;41.50
40570;BME280;26270;34.428;-119.710;2023-02-13T00:22:49;100627.40;;;18.16;41.64
40570;BME280;26270;34.428;-119.710;2023-02-13T00:25:18;100625.18;;;18.09;41.67
40570;BME280;26270;34.428;-119.710;2023-02-13T00:27:46;100628.77;;;18.15;41.36
40570;BME280;26270;34.428;-119.710;2023-02-13T00:30:16;100628.18;;;18.21;41.25
40570;BME280;26270;34.428;-119.710;2023-02-13T00:32:45;100630.37;;;18.15;41.07
40570;BME280;26270;34.428;-119.710;2023-02-13T00:35:13;100633.63;;;18.20;41.59
40570;BME280;26270;34.428;-119.710;2023-02-13T00:37:41;100635.78;;;18.03;41.94
40570;BME280;26270;34.428;-119.710;2023-02-13T00:40:09;100633.83;;;17.94;42.49
40570;BME280;26270;34.428;-119.710;2023-02-13T00:42:38;100634.92;;;17.97;42.63
40570;BME280;26270;34.428;-119.710;2023-02-13T00:45:05;100629.49;;;17.92;42.73
40570;BME280;26270;34.428;-119.710;2023-02-13T00:47:33;100631.37;;;17.90;43.02
40570;BME280;26270;34.428;-119.710;2023-02-13T00:50:02;100637.73;;;17.68;43.44
40570;BME280;26270;34.428;-119.710;2023-02-13T00:52:30;100640.15;;;17.67;43.60
40570;BME280;26270;34.428;-119.710;2023-02-13T00:54:58;100646.17;;;17.60;43.92
40570;BME280;26270;34.428;-119.710;2023-02-13T00:57:26;100644.43;;;17.38;43.87
40570;BME280;26270;34.428;-119.710;2023-02-13T00:59:54;100648.14;;;17.23;44.07
40570;BME280;26270;34.428;-119.710;2023-02-13T01:02:23;100655.16;;;17.13;44.88
40570;BME280;26270;34.428;-119.710;2023-02-13T01:04:50;100659.98;;;16.98;44.39
40570;BME280;26270;34.428;-119.710;2023-02-13T01:07:18;100656.95;;;16.79;44.56
40570;BME280;26270;34.428;-119.710;2023-02-13T01:09:46;100657.76;;;16.89;44.41
40570;BME280;26270;34.428;-119.710;2023-02-13T01:12:14;100662.32;;;16.98;44.10
40570;BME280;26270;34.428;-119.710;2023-02-13T01:14:42;100658.41;;;16.68;45.12
40570;BME280;26270;34.428;-119.710;2023-02-13T01:17:09;100652.70;;;16.70;45.41
40570;BME280;26270;34.428;-119.710;2023-02-13T01:19:40;100647.87;;;16.69;45.28
40570;BME280;26270;34.428;-119.710;2023-02-13T01:22:08;100652.99;;;16.58;45.01
40570;BME280;26270;34.428;-119.710;2023-02-13T01:24:36;100650.47;;;16.29;45.72
40570;BME280;26270;34.428;-119.710;2023-02-13T01:27:05;100653.87;;;16.33;45.27
40570;BME280;26270;34.428;-119.710;2023-02-13T01:29:34;100660.09;;;16.19;45.38
40570;BME280;26270;34.428;-119.710;2023-02-13T01:32:02;100662.95;;;16.10;46.24
40570;BME280;26270;34.428;-119.710;2023-02-13T01:34:31;100662.39;;;16.14;46.10
40570;BME280;26270;34.428;-119.710;2023-02-13T01:37:00;100668.78;;;15.94;46.16
40570;BME280;26270;34.428;-119.710;2023-02-13T01:39:28;100663.00;;;15.86;46.67
40570;BME280;26270;34.428;-119.710;2023-02-13T01:41:56;100663.87;;;15.81;46.93
40570;BME280;26270;34.428;-119.710;2023-02-13T01:44:58;100670.25;;;15.73;47.82
40570;BME280;26270;34.428;-119.710;2023-02-13T01:47:28;100677.32;;;15.76;47.81
40570;BME280;26270;34.428;-119.710;2023-02-13T01:50:05;100680.39;;;15.54;48.59
40570;BME280;26270;34.428;-119.710;2023-02-13T01:52:37;100685.12;;;15.40;48.42
40570;BME280;26270;34.428;-119.710;2023-02-13T01:55:06;100690.41;;;15.27;49.22
40570;BME280;26270;34.428;-119.710;2023-02-13T01:57:37;100693.10;;;15.34;48.25
40570;BME280;26270;34.428;-119.710;2023-02-13T02:00:09;100694.06;;;15.53;49.07
40570;BME280;26270;34.428;-119.710;2023-02-13T02:02:40;100698.91;;;15.22;49.23
40570;BME280;26270;34.428;-119.710;2023-02-13T02:05:10;100713.93;;;15.17;49.09
40570;BME280;26270;34.428;-119.710;2023-02-13T02:07:40;100713.05;;;15.11;49.98
40570;BME280;26270;34.428;-119.710;2023-02-13T02:10:13;100712.72;;;14.96;50.17
40570;BME280;26270;34.428;-119.710;2023-02-13T02:12:46;100715.60;;;14.61;50.84
40570;BME280;26270;34.428;-119.710;2023-02-13T02:15:16;100717.12;;;14.69;50.60
40570;BME280;26270;34.428;-119.710;2023-02-13T02:17:44;100717.38;;;14.62;51.03
40570;BME280;26270;34.428;-119.710;2023-02-13T02:20:29;100711.77;;;14.67;50.90
40570;BME280;26270;34.428;-119.710;2023-02-13T02:24:24;100711.76;;;14.52;51.52
40570;BME280;26270;34.428;-119.710;2023-02-13T02:27:33;100712.29;;;14.78;51.66
40570;BME280;26270;34.428;-119.710;2023-02-13T02:31:59;100709.73;;;14.59;51.77
40570;BME280;26270;34.428;-119.710;2023-02-13T02:34:34;100711.08;;;14.46;52.55
40570;BME280;26270;34.428;-119.710;2023-02-13T02:37:12;100707.63;;;14.73;52.32
40570;BME280;26270;34.428;-119.710;2023-02-13T02:39:54;100708.30;;;14.50;52.47
40570;BME280;26270;34.428;-119.710;2023-02-13T02:42:31;100712.63;;;14.48;52.54
40570;BME280;26270;34.428;-119.710;2023-02-13T02:45:07;100714.52;;;14.39;52.43
40570;BME280;26270;34.428;-119.710;2023-02-13T02:47:43;100706.91;;;14.25;53.10
40570;BME280;26270;34.428;-119.710;2023-02-13T02:50:25;100706.66;;;14.29;51.53
40570;BME280;26270;34.428;-119.710;2023-02-13T02:53:05;100708.85;;;14.21;51.46
40570;BME280;26270;34.428;-119.710;2023-02-13T02:55:40;100707.10;;;14.18;52.23
40570;BME280;26270;34.428;-119.710;2023-02-13T02:58:15;100711.73;;;14.25;52.28
40570;BME280;26270;34.428;-119.710;2023-02-13T03:00:46;100707.72;;;14.21;52.34
40570;BME280;26270;34.428;-119.710;2023-02-13T03:03:18;100701.42;;;14.11;52.37
40570;BME280;26270;34.428;-119.710;2023-02-13T03:05:47;100702.90;;;14.09;51.89
40570;BME280;26270;34.428;-119.710;2023-02-13T03:08:17;100707.55;;;14.06;52.71
40570;BME280;26270;34.428;-119.710;2023-02-13T03:10:46;100701.62;;;14.19;51.84
40570;BME280;26270;34.428;-119.710;2023-02-13T03:13:16;100702.65;;;13.99;52.31
40570;BME280;26270;34.428;-119.710;2023-02-13T03:15:58;100710.92;;;13.96;52.77
40570;BME280;26270;34.428;-119.710;2023-02-13T03:18:30;100715.79;;;13.83;53.07
40570;BME280;26270;34.428;-119.710;2023-02-13T03:21:04;100719.53;;;13.73;53.62
40570;BME280;26270;34.428;-119.710;2023-02-13T03:23:44;100714.66;;;13.92;53.35
40570;BME280;26270;34.428;-119.710;2023-02-13T03:26:31;100722.81;;;13.80;52.95
40570;BME280;26270;34.428;-119.710;2023-02-13T03:29:09;100732.31;;;13.89;53.63
40570;BME280;26270;34.428;-119.710;2023-02-13T03:31:47;100735.72;;;13.72;53.93
40570;BME280;26270;34.428;-119.710;2023-02-13T03:34:21;100734.79;;;13.62;53.61
40570;BME280;26270;34.428;-119.710;2023-02-13T03:36:57;100743.42;;;13.46;53.81
40570;BME280;26270;34.428;-119.710;2023-02-13T03:39:33;100736.52;;;13.59;53.97
40570;BME280;26270;34.428;-119.710;2023-02-13T03:42:07;100724.28;;;13.52;53.44
40570;BME280;26270;34.428;-119.710;2023-02-13T03:44:42;100721.75;;;13.46;53.02
40570;BME280;26270;34.428;-119.710;2023-02-13T03:47:13;100727.35;;;13.48;53.31
40570;BME280;26270;34.428;-119.710;2023-02-13T03:49:45;100731.60;;;13.50;52.99
40570;BME280;26270;34.428;-119.710;2023-02-13T03:52:17;100734.33;;;13.54;52.83
40570;BME280;26270;34.428;-119.710;2023-02-13T03:54:51;100734.56;;;13.33;53.13
40570;BME280;26270;34.428;-119.710;2023-02-13T03:57:21;100741.85;;;13.43;53.46
40570;BME280;26270;34.428;-119.710;2023-02-13T03:59:51;100740.15;;;13.21;53.15
40570;BME280;26270;34.428;-119.710;2023-02-13T04:02:25;100731.95;;;13.44;52.88
40570;BME280;26270;34.428;-119.710;2023-02-13T04:05:02;100731.68;;;13.26;52.89
40570;BME280;26270;34.428;-119.710;2023-02-13T04:07:34;100738.26;;;13.33;53.31
40570;BME280;26270;34.428;-119.710;2023-02-13T04:10:04;100733.64;;;13.37;53.84
40570;BME280;26270;34.428;-119.710;2023-02-13T04:12:40;100732.14;;;13.28;54.62
40570;BME280;26270;34.428;-119.710;2023-02-13T04:15:15;100732.73;;;12.97;55.75
40570;BME280;26270;34.428;-119.710;2023-02-13T04:17:47;100730.78;;;13.05;55.81
40570;BME280;26270;34.428;-119.710;2023-02-13T04:20:17;100729.40;;;13.19;56.32
40570;BME280;26270;34.428;-119.710;2023-02-13T04:22:47;100741.77;;;13.05;56.63
40570;BME280;26270;34.428;-119.710;2023-02-13T04:25:16;100739.38;;;13.07;56.86
40570;BME280;26270;34.428;-119.710;2023-02-13T04:27:45;100738.70;;;13.08;56.89
40570;BME280;26270;34.428;-119.710;2023-02-13T04:30:14;100741.65;;;12.77;57.84
40570;BME280;26270;34.428;-119.710;2023-02-13T04:32:42;100740.93;;;12.92;57.62
40570;BME280;26270;34.428;-119.710;2023-02-13T04:35:10;100739.39;;;12.77;58.64
40570;BME280;26270;34.428;-119.710;2023-02-13T04:37:38;100749.69;;;12.80;59.07
40570;BME280;26270;34.428;-119.710;2023-02-13T04:40:07;100741.80;;;12.88;58.35
40570;BME280;26270;34.428;-119.710;2023-02-13T04:42:36;100739.41;;;12.92;59.20
40570;BME280;26270;34.428;-119.710;2023-02-13T04:45:04;100739.64;;;12.89;60.25
40570;BME280;26270;34.428;-119.710;2023-02-13T04:47:32;100735.68;;;12.76;59.63
40570;BME280;26270;34.428;-119.710;2023-02-13T04:50:00;100736.46;;;12.88;60.25
40570;BME280;26270;34.428;-119.710;2023-02-13T04:52:28;100749.33;;;12.82;60.82
40570;BME280;26270;34.428;-119.710;2023-02-13T04:54:55;100749.97;;;12.59;60.72
40570;BME280;26270;34.428;-119.710;2023-02-13T04:57:23;100753.48;;;12.90;60.72
40570;BME280;26270;34.428;-119.710;2023-02-13T04:59:51;100756.78;;;12.76;61.08
40570;BME280;26270;34.428;-119.710;2023-02-13T05:03:19;100750.42;;;12.72;60.75
40570;BME280;26270;34.428;-119.710;2023-02-13T05:05:47;100758.98;;;12.55;62.65
40570;BME280;26270;34.428;-119.710;2023-02-13T05:08:16;100762.62;;;12.47;62.86
40570;BME280;26270;34.428;-119.710;2023-02-13T05:10:44;100760.40;;;12.56;62.86
40570;BME280;26270;34.428;-119.710;2023-02-13T05:13:12;100759.26;;;12.51;63.01
40570;BME280;26270;34.428;-119.710;2023-02-13T05:15:40;100758.93;;;12.64;62.87
40570;BME280;26270;34.428;-119.710;2023-02-13T05:18:08;100769.08;;;12.49;63.00
40570;BME280;26270;34.428;-119.710;2023-02-13T05:20:36;100768.95;;;12.67;63.19
40570;BME280;26270;34.428;-119.710;2023-02-13T05:23:04;100763.11;;;12.68;63.13
40570;BME280;26270;34.428;-119.710;2023-02-13T05:25:33;100759.97;;;12.48;64.12
40570;BME280;26270;34.428;-119.710;2023-02-13T05:28:01;100756.72;;;12.61;65.58
40570;BME280;26270;34.428;-119.710;2023-02-13T05:30:29;100755.24;;;12.64;65.25
40570;BME280;26270;34.428;-119.710;2023-02-13T05:32:58;100752.78;;;12.61;65.57
40570;BME280;26270;34.428;-119.710;2023-02-13T05:35:25;100753.77;;;12.64;65.98
40570;BME280;26270;34.428;-119.710;2023-02-13T05:37:53;100755.77;;;12.75;65.97
40570;BME280;26270;34.428;-119.710;2023-02-13T05:40:21;100753.65;;;12.77;65.03
40570;BME280;26270;34.428;-119.710;2023-02-13T05:42:53;100755.06;;;12.69;65.81
40570;BME280;26270;34.428;-119.710;2023-02-13T05:45:21;100755.16;;;12.76;65.04
40570;BME280;26270;34.428;-119.710;2023-02-13T05:47:49;100752.29;;;12.63;65.55
40570;BME280;26270;34.428;-119.710;2023-02-13T05:50:16;100752.68;;;12.68;65.51
40570;BME280;26270;34.428;-119.710;2023-02-13T05:52:45;100751.11;;;12.80;65.43
40570;BME280;26270;34.428;-119.710;2023-02-13T05:55:13;100753.66;;;12.79;65.46
40570;BME280;26270;34.428;-119.710;2023-02-13T05:57:41;100754.50;;;12.80;64.87
40570;BME280;26270;34.428;-119.710;2023-02-13T06:00:10;100746.66;;;12.64;65.60
40570;BME280;26270;34.428;-119.710;2023-02-13T06:02:38;100752.13;;;12.47;65.37
40570;BME280;26270;34.428;-119.710;2023-02-13T06:05:06;100754.35;;;12.58;65.13
40570;BME280;26270;34.428;-119.710;2023-02-13T06:07:34;100756.09;;;12.67;65.21
40570;BME280;26270;34.428;-119.710;2023-02-13T06:10:02;100752.73;;;12.57;65.03
40570;BME280;26270;34.428;-119.710;2023-02-13T06:12:30;100744.60;;;12.71;64.71
40570;BME280;26270;34.428;-119.710;2023-02-13T06:14:58;100763.02;;;12.28;66.54
40570;BME280;26270;34.428;-119.710;2023-02-13T06:17:26;100754.24;;;12.36;66.17
40570;BME280;26270;34.428;-119.710;2023-02-13T06:19:55;100750.71;;;12.41;66.13
40570;BME280;26270;34.428;-119.710;2023-02-13T06:22:22;100756.68;;;12.11;66.88
40570;BME280;26270;34.428;-119.710;2023-02-13T06:24:50;100749.35;;;12.26;65.91
40570;BME280;26270;34.428;-119.710;2023-02-13T06:27:18;100743.00;;;12.29;66.58
40570;BME280;26270;34.428;-119.710;2023-02-13T06:29:45;100736.91;;;12.21;66.76
40570;BME280;26270;34.428;-119.710;2023-02-13T06:32:13;100745.56;;;12.12;67.36
40570;BME280;26270;34.428;-119.710;2023-02-13T06:34:42;100747.15;;;12.28;66.78
40570;BME280;26270;34.428;-119.710;2023-02-13T06:37:09;100746.76;;;12.29;66.73
40570;BME280;26270;34.428;-119.710;2023-02-13T06:39:38;100746.62;;;12.35;66.43
40570;BME280;26270;34.428;-119.710;2023-02-13T06:42:05;100751.35;;;12.26;66.78
40570;BME280;26270;34.428;-119.710;2023-02-13T06:44:33;100753.66;;;12.10;67.13
40570;BME280;26270;34.428;-119.710;2023-02-13T06:47:02;100746.79;;;12.31;67.22
40570;BME280;26270;34.428;-119.710;2023-02-13T06:49:29;100743.85;;;12.34;67.77
40570;BME280;26270;34.428;-119.710;2023-02-13T06:51:57;100743.00;;;12.40;67.60
40570;BME280;26270;34.428;-119.710;2023-02-13T06:54:25;100739.63;;;12.51;67.05
40570;BME280;26270;34.428;-119.710;2023-02-13T06:56:52;100743.58;;;12.63;67.01
40570;BME280;26270;34.428;-119.710;2023-02-13T06:59:20;100755.46;;;12.48;67.65
40570;BME280;26270;34.428;-119.710;2023-02-13T07:01:48;100745.89;;;12.51;67.52
40570;BME280;26270;34.428;-119.710;2023-02-13T07:04:16;100746.46;;;12.37;67.90
40570;BME280;26270;34.428;-119.710;2023-02-13T07:06:44;100753.46;;;12.44;67.64
40570;BME280;26270;34.428;-119.710;2023-02-13T07:09:11;100750.96;;;12.29;67.52
40570;BME280;26270;34.428;-119.710;2023-02-13T07:11:39;100751.99;;;12.47;67.09
40570;BME280;26270;34.428;-119.710;2023-02-13T07:14:08;100744.38;;;12.42;66.64
40570;BME280;26270;34.428;-119.710;2023-02-13T07:16:36;100743.36;;;12.36;67.02
40570;BME280;26270;34.428;-119.710;2023-02-13T07:19:04;100739.80;;;12.30;66.67
40570;BME280;26270;34.428;-119.710;2023-02-13T07:21:31;100739.62;;;12.26;66.68
40570;BME280;26270;34.428;-119.710;2023-02-13T07:24:00;100742.19;;;12.48;65.55
40570;BME280;26270;34.428;-119.710;2023-02-13T07:26:28;100740.87;;;12.30;65.61
40570;BME280;26270;34.428;-119.710;2023-02-13T07:28:56;100736.66;;;12.34;65.89
40570;BME280;26270;34.428;-119.710;2023-02-13T07:31:24;100736.36;;;12.31;65.53
40570;BME280;26270;34.428;-119.710;2023-02-13T07:33:53;100729.81;;;12.30;65.62
40570;BME280;26270;34.428;-119.710;2023-02-13T07:36:20;100729.43;;;12.13;66.05
40570;BME280;26270;34.428;-119.710;2023-02-13T07:38:48;100726.04;;;12.17;65.97
40570;BME280;26270;34.428;-119.710;2023-02-13T07:41:16;100722.18;;;12.08;66.33
40570;BME280;26270;34.428;-119.710;2023-02-13T07:43:44;100723.12;;;12.20;66.26
40570;BME280;26270;34.428;-119.710;2023-02-13T07:46:12;100728.14;;;11.93;66.99
40570;BME280;26270;34.428;-119.710;2023-02-13T07:48:40;100729.30;;;11.87;67.28
40570;BME280;26270;34.428;-119.710;2023-02-13T07:51:09;100724.49;;;11.81;67.73
40570;BME280;26270;34.428;-119.710;2023-02-13T07:53:36;100723.86;;;11.98;67.36
40570;BME280;26270;34.428;-119.710;2023-02-13T07:56:06;100718.67;;;11.89;66.51
40570;BME280;26270;34.428;-119.710;2023-02-13T07:58:34;100721.34;;;11.99;66.08
40570;BME280;26270;34.428;-119.710;2023-02-13T08:01:06;100727.64;;;11.74;66.49
40570;BME280;26270;34.428;-119.710;2023-02-13T08:03:34;100719.10;;;12.00;66.64
40570;BME280;26270;34.428;-119.710;2023-02-13T08:06:03;100719.72;;;11.82;66.58
40570;BME280;26270;34.428;-119.710;2023-02-13T08:08:31;100715.32;;;11.74;66.82
40570;BME280;26270;34.428;-119.710;2023-02-13T08:11:04;100707.38;;;11.55;66.36
40570;BME280;26270;34.428;-119.710;2023-02-13T08:13:32;100701.64;;;11.66;66.03
40570;BME280;26270;34.428;-119.710;2023-02-13T08:16:00;100706.75;;;11.23;68.45
40570;BME280;26270;34.428;-119.710;2023-02-13T08:18:28;100705.04;;;11.17;68.60
40570;BME280;26270;34.428;-119.710;2023-02-13T08:20:56;100712.06;;;10.65;69.90
40570;BME280;26270;34.428;-119.710;2023-02-13T08:23:23;100714.81;;;10.59;70.76
40570;BME280;26270;34.428;-119.710;2023-02-13T08:25:51;100715.49;;;11.03;68.89
40570;BME280;26270;34.428;-119.710;2023-02-13T08:28:19;100710.76;;;11.18;68.77
40570;BME280;26270;34.428;-119.710;2023-02-13T08:30:46;100703.72;;;11.33;68.34
40570;BME280;26270;34.428;-119.710;2023-02-13T08:33:15;100700.10;;;11.30;67.73
40570;BME280;26270;34.428;-119.710;2023-02-13T08:35:42;100697.31;;;11.21;67.96
40570;BME280;26270;34.428;-119.710;2023-02-13T08:38:10;100693.53;;;11.21;67.99
40570;BME280;26270;34.428;-119.710;2023-02-13T08:40:38;100698.99;;;11.26;67.90
40570;BME280;26270;34.428;-119.710;2023-02-13T08:43:06;100696.10;;;11.18;67.60
40570;BME280;26270;34.428;-119.710;2023-02-13T08:45:35;100691.86;;;11.22;67.61
40570;BME280;26270;34.428;-119.710;2023-02-13T08:48:03;100689.14;;;11.08;67.60
40570;BME280;26270;34.428;-119.710;2023-02-13T08:50:31;100684.79;;;10.97;67.78
40570;BME280;26270;34.428;-119.710;2023-02-13T08:52:59;100676.63;;;11.15;67.76
40570;BME280;26270;34.428;-119.710;2023-02-13T08:55:27;100682.94;;;10.99;67.99
40570;BME280;26270;34.428;-119.710;2023-02-13T08:57:57;100679.27;;;11.13;67.82
40570;BME280;26270;34.428;-119.710;2023-02-13T09:00:26;100675.40;;;10.94;69.10
40570;BME280;26270;34.428;-119.710;2023-02-13T09:02:54;100675.00;;;10.87;68.43
40570;BME280;26270;34.428;-119.710;2023-02-13T09:05:22;100672.78;;;10.84;68.72
40570;BME280;26270;34.428;-119.710;2023-02-13T09:07:50;100677.12;;;10.97;68.64
40570;BME280;26270;34.428;-119.710;2023-02-13T09:10:18;100682.40;;;10.89;68.63
40570;BME280;26270;34.428;-119.710;2023-02-13T09:12:51;100692.47;;;10.96;68.38
40570;BME280;26270;34.428;-119.710;2023-02-13T09:15:19;100693.63;;;10.89;68.00
40570;BME280;26270;34.428;-119.710;2023-02-13T09:17:47;100697.81;;;10.83;68.02
40570;BME280;26270;34.428;-119.710;2023-02-13T09:20:15;100709.76;;;10.68;69.08
40570;BME280;26270;34.428;-119.710;2023-02-13T09:22:43;100712.93;;;10.75;69.45
40570;BME280;26270;34.428;-119.710;2023-02-13T09:25:11;100712.15;;;10.78;69.74
40570;BME280;26270;34.428;-119.710;2023-02-13T09:27:40;100718.26;;;10.85;69.53
40570;BME280;26270;34.428;-119.710;2023-02-13T09:30:10;100724.05;;;10.90;69.49
40570;BME280;26270;34.428;-119.710;2023-02-13T09:32:41;100732.22;;;10.71;70.27
40570;BME280;26270;34.428;-119.710;2023-02-13T09:35:09;100741.02;;;11.01;69.61
40570;BME280;26270;34.428;-119.710;2023-02-13T09:37:36;100746.03;;;10.97;69.22
40570;BME280;26270;34.428;-119.710;2023-02-13T09:40:05;100749.32;;;11.13;69.13
40570;BME280;26270;34.428;-119.710;2023-02-13T09:42:34;100753.19;;;10.98;69.16
40570;BME280;26270;34.428;-119.710;2023-02-13T09:45:04;100759.93;;;11.05;68.95
40570;BME280;26270;34.428;-119.710;2023-02-13T09:47:35;100768.41;;;11.01;68.90
40570;BME280;26270;34.428;-119.710;2023-02-13T09:50:06;100778.93;;;11.24;68.30
40570;BME280;26270;34.428;-119.710;2023-02-13T09:52:39;100785.33;;;10.95;68.75
40570;BME280;26270;34.428;-119.710;2023-02-13T09:55:15;100788.13;;;11.07;68.38
40570;BME280;26270;34.428;-119.710;2023-02-13T09:57:49;100789.84;;;11.26;68.72
40570;BME280;26270;34.428;-119.710;2023-02-13T10:00:24;100794.42;;;11.41;68.29
40570;BME280;26270;34.428;-119.710;2023-02-13T10:03:16;100801.47;;;11.47;68.04
40570;BME280;26270;34.428;-119.710;2023-02-13T10:05:52;100806.13;;;11.59;68.03
40570;BME280;26270;34.428;-119.710;2023-02-13T10:08:33;100805.58;;;11.60;67.59
40570;BME280;26270;34.428;-119.710;2023-02-13T10:11:10;100803.79;;;11.73;67.09
40570;BME280;26270;34.428;-119.710;2023-02-13T10:13:54;100809.89;;;11.71;66.97
40570;BME280;26270;34.428;-119.710;2023-02-13T10:16:29;100811.29;;;11.74;67.03
40570;BME280;26270;34.428;-119.710;2023-02-13T10:19:03;100818.23;;;11.77;67.19
40570;BME280;26270;34.428;-119.710;2023-02-13T10:21:36;100819.39;;;12.05;66.11
40570;BME280;26270;34.428;-119.710;2023-02-13T10:24:11;100824.76;;;12.18;66.66
40570;BME280;26270;34.428;-119.710;2023-02-13T10:26:42;100822.97;;;12.04;66.84
40570;BME280;26270;34.428;-119.710;2023-02-13T10:29:18;100819.10;;;12.18;66.17
40570;BME280;26270;34.428;-119.710;2023-02-13T10:31:50;100808.95;;;12.05;66.43
40570;BME280;26270;34.428;-119.710;2023-02-13T10:34:23;100800.48;;;12.27;66.14
40570;BME280;26270;34.428;-119.710;2023-02-13T10:36:53;100799.43;;;12.10;65.63
40570;BME280;26270;34.428;-119.710;2023-02-13T10:39:24;100805.84;;;12.27;65.48
40570;BME280;26270;34.428;-119.710;2023-02-13T10:41:53;100797.50;;;12.21;65.89
40570;BME280;26270;34.428;-119.710;2023-02-13T10:44:32;100789.07;;;12.14;65.58
40570;BME280;26270;34.428;-119.710;2023-02-13T10:47:12;100790.89;;;12.29;65.34
40570;BME280;26270;34.428;-119.710;2023-02-13T10:49:52;100792.72;;;12.21;65.59
40570;BME280;26270;34.428;-119.710;2023-02-13T10:52:36;100795.81;;;12.23;65.07
40570;BME280;26270;34.428;-119.710;2023-02-13T10:55:19;100806.31;;;12.34;65.54
40570;BME280;26270;34.428;-119.710;2023-02-13T10:58:02;100805.29;;;12.46;65.44
40570;BME280;26270;34.428;-119.710;2023-02-13T11:00:37;100808.49;;;12.34;65.39
40570;BME280;26270;34.428;-119.710;2023-02-13T11:03:17;100804.56;;;12.50;65.26
40570;BME280;26270;34.428;-119.710;2023-02-13T11:05:45;100797.97;;;12.59;65.01
40570;BME280;26270;34.428;-119.710;2023-02-13T11:08:19;100797.56;;;12.56;64.77
40570;BME280;26270;34.428;-119.710;2023-02-13T11:10:48;100805.47;;;12.59;65.11
40570;BME280;26270;34.428;-119.710;2023-02-13T11:13:18;100812.71;;;12.69;64.54
40570;BME280;26270;34.428;-119.710;2023-02-13T11:16:04;100815.32;;;12.64;64.40
40570;BME280;26270;34.428;-119.710;2023-02-13T11:18:34;100811.78;;;12.66;64.16
40570;BME280;26270;34.428;-119.710;2023-02-13T11:21:07;100816.67;;;12.77;64.14
40570;BME280;26270;34.428;-119.710;2023-02-13T11:23:41;100823.02;;;12.90;63.81
40570;BME280;26270;34.428;-119.710;2023-02-13T11:26:13;100829.77;;;12.84;63.44
40570;BME280;26270;34.428;-119.710;2023-02-13T11:28:49;100827.63;;;12.74;63.73
40570;BME280;26270;34.428;-119.710;2023-02-13T11:31:27;100822.61;;;12.63;64.29
40570;BME280;26270;34.428;-119.710;2023-02-13T11:33:57;100822.40;;;12.74;63.86
40570;BME280;26270;34.428;-119.710;2023-02-13T11:36:28;100819.35;;;12.71;63.56
40570;BME280;26270;34.428;-119.710;2023-02-13T11:38:59;100816.18;;;12.69;63.32
40570;BME280;26270;34.428;-119.710;2023-02-13T11:41:29;100817.07;;;12.73;63.58
40570;BME280;26270;34.428;-119.710;2023-02-13T11:43:59;100811.84;;;12.55;63.85
40570;BME280;26270;34.428;-119.710;2023-02-13T11:46:29;100817.81;;;12.48;64.28
40570;BME280;26270;34.428;-119.710;2023-02-13T11:49:17;100833.91;;;12.28;64.26
40570;BME280;26270;34.428;-119.710;2023-02-13T11:51:47;100841.87;;;12.39;64.16
40570;BME280;26270;34.428;-119.710;2023-02-13T11:54:23;100840.57;;;12.19;64.51
40570;BME280;26270;34.428;-119.710;2023-02-13T11:56:53;100835.23;;;12.49;64.03
40570;BME280;26270;34.428;-119.710;2023-02-13T11:59:23;100844.53;;;12.40;63.93
40570;BME280;26270;34.428;-119.710;2023-02-13T12:02:08;100845.09;;;12.35;64.27
40570;BME280;26270;34.428;-119.710;2023-02-13T12:04:40;100839.71;;;12.32;64.60
40570;BME280;26270;34.428;-119.710;2023-02-13T12:07:15;100845.15;;;12.14;64.47
40570;BME280;26270;34.428;-119.710;2023-02-13T12:09:46;100846.51;;;12.04;65.11
40570;BME280;26270;34.428;-119.710;2023-02-13T12:12:20;100841.29;;;12.04;65.33
40570;BME280;26270;34.428;-119.710;2023-02-13T12:14:49;100842.90;;;11.80;65.35
40570;BME280;26270;34.428;-119.710;2023-02-13T12:17:21;100843.73;;;12.13;65.29
40570;BME280;26270;34.428;-119.710;2023-02-13T12:19:50;100839.76;;;11.87;65.77
40570;BME280;26270;34.428;-119.710;2023-02-13T12:22:43;100831.24;;;11.62;66.02
40570;BME280;26270;34.428;-119.710;2023-02-13T12:25:28;100832.81;;;11.69;65.94
40570;BME280;26270;34.428;-119.710;2023-02-13T12:28:11;100837.96;;;11.73;66.22
40570;BME280;26270;34.428;-119.710;2023-02-13T12:33:01;100837.83;;;11.62;66.01
40570;BME280;26270;34.428;-119.710;2023-02-13T12:35:40;100837.47;;;11.69;66.00
40570;BME280;26270;34.428;-119.710;2023-02-13T12:38:23;100841.33;;;11.49;66.01
40570;BME280;26270;34.428;-119.710;2023-02-13T12:41:08;100851.80;;;11.55;65.78
40570;BME280;26270;34.428;-119.710;2023-02-13T12:44:01;100868.43;;;11.18;66.76
40570;BME280;26270;34.428;-119.710;2023-02-13T12:46:38;100888.50;;;11.29;66.33